Aviation Digital Data Service (ADDS)

Output produced by METARs form (2333 UTC 26 February 2020)
found at http://www.aviationweather.gov/metar/data/
 
NSFA 262300Z 02006KT 9999 FEW024 BKN250 32/26 Q1011 RMK NIL
NSFA 262200Z 02006KT 9999 FEW023 BKN080 32/26 Q1011 RMK NIL
NSFA 262100Z 02007KT 9999 FEW023 BKN270 31/26 Q1011 RMK NIL
NSFA 262000Z 02007KT 340V050 9999 SCT022 30/26 Q1011 RMK NIL
NSFA 261900Z 05003KT 9999 BKN023 28/26 Q1011 RMK NIL
NSFA 261800Z 11003KT 9999 FEW022 BKN140 26/25 Q1010 RMK NIL
NSFA 261700Z 10003KT 9999 FEW022 BKN130 25/25 Q1010 RMK NIL
NSFA 261600Z 10003KT 9999 FEW020 BKN120 25/25 Q1009 RMK NIL
NSFA 261500Z 07004KT 9999 FEW020 SCT046 BKN120 26/25 Q1009 RMK NIL
NSFA 261400Z 05003KT 9999 FEW020 SCT042 OVC110 26/26 Q1009 RMK NIL
NSFA 261300Z 02008KT 9999 FEW020 SCT042 OVC110 27/26 Q1010 RMK NIL
NSFA 261200Z 34005KT 9999 -DZ FEW019 SCT040 OVC110 27/26 Q1011
NSFA 261100Z 29007KT 9999 -DZ SCT018 BKN35 OVC110 27/26 Q1012 RMK NIL
NSFA 261000Z 35005KT 9999 SCT016 BKN035 OVC100 26/25 Q1012 RMK NIL
NSFA 260900Z 09003KT 9999 SCT018 BKN038 OVC120 25/25 Q1012 RERA
NSFA 260800Z 09004KT 9999 SCT018 BKN035 OVC100 26/25 Q1011 RMK NIL
NSFA 260700Z 33007KT 9999 SCT016 BKN035 OVC100 26/25 Q1011 RERA
NSFA 260640Z 32010KT 9999 -RA SCT016 BKN032 OVC100 26/26 Q1010 RMK VIS INCREASE AND SPECI CONDX CEASE
NSFA 260630Z 33011KT 6000 RA SCT015 BKN032 OVC100 26/26 Q1010 RMK POOR VIS
NSFA 260620Z 32012KT 2000 RA SCT014 BKN030 OVC100 26/26 Q1010 RMK POOR VIS
NSFA 260610Z 33012KT 2000 +RA SCT014 BKN030 OVC100 26/26 Q1010 RMK POOR VIS
NSFA 260600Z 33013KT 9999 +DZ SCT016 BKN032 OVC100 27/26 Q1010 RMK POOR VIS TO W
NSFA 260500Z VRB03KT 9999 SCT018 BKN050 27/26 Q1009 RERA
NSFA 260400Z 07007KT 9999 SCT016 BKN035 OVC100 27/26 Q1008 RMK DSTNT SHWRS 20KM TO N
NSFA 260320Z 07005KT 9000 +RA SCT016 BKN038 OVC120 27/26 Q1009 RMK SPECI CONDX CEASE
NSFA 260310Z 03009KT 010V080 3000 +RA SCT015 BKN038 OVC120 27/26 Q1009 RMK POOR VIS
NSFA 260300Z 29011KT 6000 +RA SCT015 BKN038 OVC120 27/26 Q1008 RMK POOR VIS
NSFA 260200Z 03010KT 9999 VCSH BKN016 FEW018CB 32/27 Q1008 RMK POOR VIS WITHIN THE VISINITY FROM CB TO NW
NSFA 260100Z 03011KT 9999 FEW016CB BKN020 30/27 Q1009 RMK CB TO NW
NSFA 260000Z 02010KT 9999 SCT018 30/27 Q1009 RMK DSTNT SHWRS 25KM TO THE N
TAF NSFA 262323Z 2700/2724 04007KT 9999 SCT020 SCT100 
     PROB30 
     TEMPO 2702/2707 5000 TSRA FEW018CB